Wildorado, Texas
Current Conditions -  °F | °C
As of 9:15 AM on Thursday 18 Dec 2014 (Local Time) from KHRX Reporting Station
Moderate Fog Moderate Fog  
Wind Chill: 30°   Ceiling: 300
Heat Index: 35°   Visibility: 0.5mi
Dew Point: 35°   Wind: 6mph
Humidity: 100%   Direction: 360°N
Pressure: 30.11"   Gusts: NA
Location:  35.21°N, 102.2°W
Report Text: KHRX 181515Z AUTO 36005KT 1/2SM FG OVC003 02/02 A3011 RMK AO2 T00170017
Loading
Personal Weather Stations






























Interactive Weather Map New forecast layout! Learn more

10-Day Weather Forecast

Advertisements
Track Severe Weather on mobile